Airways and Terminal Forecast

Significant Meteorological Information

Terminal Aerodrome Forecast

TAF RPLL

 

300500Z 3006/3112 12006KT 9999 FEW025 SCT300 TX36/3006Z TN27/3021Z TEMPO 3006/3012 24008KT 9000 –TSRA FEW020CB SCT022 BKN080 TEMPO 3012/3018 VRB03KT FEW023 BKN300=

TAF RPVM

300500Z 3006/3112 06006KT 9999 FEW020 BKN300 TEMPO 3006/3012 06010KT –SHRA FEW018CB SCT020 BKN100 TEMPO 3012/3018 08008KT FEW018CB FEW020 BKN300=

TAF RPLC

300500Z 3006/3112 16010KT 9999 SCT020 BKN300 TX35/3006Z TN25/3022Z TEMPO 3006/3012 18012KT 7000 –TSRA FEW018CB SCT020 BKN100=

TAF RPLB

300500Z 3006/3106 19008KT 9999 SCT020 TX33/3006Z TN26/3020Z TEMPO 3006/3012 34006KT 9000 –TSRA FEW018CB SCT020 BKN080=

TAF RPLI

300500Z 3006/3106 32006KT 9999 FEW018 SCT290 TEMPO 3006/3012 27010KT 8000 –TSRA FEW017CB SCT018 BKN080=

TAF RPVP

300500Z 3006/3106 12006KT 9999 FEW019 SCT080 TEMPO 3006/3012 16010KT –SHRA FEW017CB SCT019 BKN080=

TAF RPVD

300500Z 3006/3106 04006KT 9999 FEW015 BKN220 TEMPO 3006/3012 07008KT 9000 –TSRA FEW014CB SCT015 BKN070=

TAF RPMR

300500Z 3006/3106 04006KT 9999 FEW018 SCT080 TEMPO 3006/3012 14008KT –SHRA FEW017CB SCT018 BKN080=

TAF RPMD

300500Z 3006/3106 06005KT 9999 FEW016 SCT290 TEMPO 3008/3014 22008KT 8000 –TSRA SCT015CB BKN090 OVC290=

TAF RPMZ

300500Z 3006/3106 06004KT 9999 FEW017 SCT090 BKN300 TEMPO 3006/3012 16008KT –SHRA SCT017 BKN090 OVC300=

 

                                                 RPLL FORECAST TAKE-OFF CONDITION

TIME

(UTC)

WIND

(dddffKT)

TEMP

(°C)

QNH

(hPa)

TIME

(UTC)

WIND

(dddffKT)

TEMP

(°C)

QNH

(hPa)

0600

20006KT

36.0

1010.5

1000

24008KT

32.0

1011.0

0700

22006KT

35.0

1010.0

1100

22006KT

31.0

1012.0

0800

22007KT

34.0

1009.5

1200

20004KT

30.0

1013.0

0900

24008KT

33.0

1010.0

1300

VRB03KT

29.0

1014.0

 

ISSUED AT NAIA AMSS-WD/PAGASA-DOST FOR 0500UTC 30 MAY 2020

PREPARED BY:   AYN

CHECKED BY:     CRSED